Time;durP1;ratioP1;P1;durP2;ratioP2;P2;SDS_P1;SDS_P2;PMS_P1;PMS_P2;Temp;Humidity;BMP_temperature;BMP_pressure;BME280_temperature;BME280_humidity;BME280_pressure;Samples;Min_cycle;Max_cycle;Signal;HPM_P1;HPM_P2
2022/12/06 03:05:23;;;;;;;10.33;6.73;;;;;;;-8.11;87.42;101148.95;1689254;83;22584;-74
2022/12/06 03:07:51;;;;;;;6.50;5.13;;;;;;;-8.09;87.18;101140.55;1687692;83;21568;-73
2022/12/06 03:10:40;;;;;;;5.60;5.00;;;;;;;-8.05;86.77;101140.26;1694810;82;21665;-74
2022/12/06 03:13:20;;;;;;;8.80;6.17;;;;;;;-7.98;86.76;101136.81;1706053;82;20982;-80
2022/12/06 03:16:18;;;;;;;9.63;5.77;;;;;;;-7.83;86.72;101140.23;1708936;81;21098;-78
2022/12/06 03:18:59;;;;;;;16.73;5.97;;;;;;;-7.73;86.43;101133.49;1682020;84;20908;-79
2022/12/06 03:21:39;;;;;;;6.73;4.70;;;;;;;-7.63;86.07;101144.56;1703706;83;21565;-75
2022/12/06 03:24:10;;;;;;;10.93;4.63;;;;;;;-7.64;85.20;101142.88;1720744;81;21249;-74
2022/12/06 03:26:37;;;;;;;9.60;5.17;;;;;;;-7.65;84.94;101145.58;1675275;82;21073;-77
2022/12/06 03:29:04;;;;;;;12.73;5.07;;;;;;;-7.68;84.68;101151.02;1631644;85;21110;-68
2022/12/06 03:31:31;;;;;;;9.10;5.83;;;;;;;-7.68;84.80;101145.79;1686473;83;21107;-78
2022/12/06 03:34:03;;;;;;;8.17;4.60;;;;;;;-7.66;84.68;101143.44;1686575;83;21048;-85
2022/12/06 03:36:29;;;;;;;7.05;4.62;;;;;;;-7.59;84.68;101144.73;1682030;83;21165;-78
2022/12/06 03:39:01;;;;;;;10.40;4.87;;;;;;;-7.56;84.09;101144.52;1680811;84;21062;-78
2022/12/06 03:41:36;;;;;;;10.70;5.93;;;;;;;-7.55;84.19;101143.59;1659843;83;21667;-78
2022/12/06 03:44:02;;;;;;;7.83;5.70;;;;;;;-7.50;84.17;101140.69;1675328;85;22387;-80
2022/12/06 03:46:33;;;;;;;8.23;6.07;;;;;;;-7.51;83.54;101146.38;1652581;85;20995;-79
2022/12/06 03:49:04;;;;;;;13.33;5.77;;;;;;;-7.60;83.48;101139.13;1681120;84;21634;-81
2022/12/06 03:51:33;;;;;;;10.60;5.20;;;;;;;-7.56;83.86;101139.30;1682839;83;21177;-74
2022/12/06 03:54:03;;;;;;;9.37;5.93;;;;;;;-7.44;83.71;101138.16;1679804;84;21149;-77
2022/12/06 03:56:30;;;;;;;12.13;7.67;;;;;;;-7.45;83.38;101139.92;1641241;85;21119;-76
2022/12/06 03:58:57;;;;;;;11.63;8.73;;;;;;;-7.46;83.37;101138.23;1624799;85;21060;-74
2022/12/06 04:01:23;;;;;;;15.73;10.63;;;;;;;-7.36;83.50;101137.17;1650645;86;21115;-73
2022/12/06 04:03:50;;;;;;;29.77;19.73;;;;;;;-7.23;83.31;101138.87;1639012;87;21078;-74
2022/12/06 04:06:16;;;;;;;20.47;13.33;;;;;;;-7.22;82.91;101135.80;1650813;84;21012;-77
2022/12/06 04:08:43;;;;;;;22.30;17.07;;;;;;;-7.19;82.87;101132.51;1647955;84;21196;-68
2022/12/06 04:11:10;;;;;;;17.13;13.53;;;;;;;-7.14;82.82;101130.42;1632478;84;21174;-74
2022/12/06 04:13:37;;;;;;;17.37;13.20;;;;;;;-7.04;82.60;101124.12;1696875;82;21145;-73
2022/12/06 04:18:09;;;;;;;13.27;9.30;;;;;;;-6.97;82.47;101121.48;1657645;82;21082;-71
2022/12/06 04:18:35;;;;;;;20.33;12.63;;;;;;;-6.96;81.67;101117.09;1674617;83;21051;-71
2022/12/06 04:23:50;;;;;;;21.93;11.07;;;;;;;-6.91;81.71;101111.08;1680571;84;21134;-73
2022/12/06 04:26:19;;;;;;;18.37;12.57;;;;;;;-6.89;81.41;101107.41;1706321;82;21155;-71
2022/12/06 04:39:49;;;;;;;19.60;13.73;;;;;;;-6.91;81.04;101098.84;1656554;84;21221;-69
2022/12/06 04:45:02;;;;;;;11.60;8.23;;;;;;;-6.90;80.73;101103.11;1616076;86;20982;-76
2022/12/06 04:47:30;;;;;;;13.77;8.47;;;;;;;-7.00;80.76;101103.36;1688461;82;21110;-77
2022/12/06 04:49:56;;;;;;;14.33;8.07;;;;;;;-7.10;80.90;101090.56;1662911;84;21070;-75
2022/12/06 04:52:23;;;;;;;13.23;7.87;;;;;;;-7.12;81.23;101097.66;1665895;82;21140;-74
2022/12/06 04:54:50;;;;;;;13.90;8.77;;;;;;;-7.04;81.37;101097.97;1693662;82;21121;-78
2022/12/06 04:57:18;;;;;;;13.40;7.90;;;;;;;-7.01;81.30;101096.95;1727855;81;21572;-71
2022/12/06 04:59:48;;;;;;;11.37;8.53;;;;;;;-6.97;81.25;101097.10;1703695;82;21058;-72
2022/12/06 05:02:17;;;;;;;12.57;7.90;;;;;;;-7.00;81.16;101100.74;1687012;83;21088;-75
2022/12/06 05:04:46;;;;;;;10.90;7.17;;;;;;;-6.96;81.27;101108.78;1662359;84;21061;-71
2022/12/06 05:07:18;;;;;;;12.63;6.47;;;;;;;-6.84;81.42;101105.78;1682056;82;21320;-72
2022/12/06 05:09:46;;;;;;;8.43;6.53;;;;;;;-6.83;81.00;101106.16;1645393;86;21051;-76
2022/12/06 05:12:13;;;;;;;10.83;7.50;;;;;;;-6.82;80.94;101104.76;1657105;83;21086;-75
2022/12/06 05:14:41;;;;;;;13.00;6.27;;;;;;;-6.81;80.78;101097.75;1627450;86;21591;-75
2022/12/06 05:17:08;;;;;;;10.37;6.60;;;;;;;-6.96;80.53;101098.31;1611637;86;21351;-75
2022/12/06 05:19:34;;;;;;;12.33;6.87;;;;;;;-7.07;80.89;101094.27;1644762;84;21128;-77
2022/12/06 05:22:00;;;;;;;15.17;6.30;;;;;;;-7.02;81.22;101090.04;1632829;85;21062;-76
2022/12/06 05:24:27;;;;;;;10.47;6.27;;;;;;;-7.00;81.22;101082.94;1613464;86;20991;-75
2022/12/06 05:26:54;;;;;;;13.37;7.63;;;;;;;-6.97;81.34;101089.26;1635333;86;21115;-77
2022/12/06 05:29:21;;;;;;;9.73;6.97;;;;;;;-7.07;81.14;101085.13;1641950;82;21852;-80
2022/12/06 05:31:50;;;;;;;9.53;5.93;;;;;;;-7.16;81.45;101093.12;1643346;85;21541;-82
2022/12/06 05:34:17;;;;;;;13.50;7.40;;;;;;;-7.15;81.70;101090.87;1657067;84;21077;-79
2022/12/06 05:36:44;;;;;;;7.90;5.83;;;;;;;-7.20;81.75;101084.27;1692560;83;21055;-82
2022/12/06 05:39:11;;;;;;;14.00;7.67;;;;;;;-7.27;82.07;101082.99;1658345;83;21575;-83
2022/12/06 05:41:37;;;;;;;15.00;6.93;;;;;;;-7.33;82.41;101082.09;1692894;82;21745;-85
2022/12/06 05:44:04;;;;;;;12.37;7.57;;;;;;;-7.33;82.53;101080.31;1681904;82;21056;-83
2022/12/06 05:46:30;;;;;;;13.47;8.23;;;;;;;-7.29;82.82;101077.86;1700136;83;21504;-81
2022/12/06 05:48:58;;;;;;;12.63;9.00;;;;;;;-7.17;82.89;101078.36;1718342;82;20999;-73
2022/12/06 05:51:25;;;;;;;14.67;7.63;;;;;;;-7.15;82.86;101075.19;1718201;82;21703;-74
2022/12/06 05:53:52;;;;;;;11.83;7.83;;;;;;;-7.14;82.88;101079.92;1696582;83;21222;-80
2022/12/06 10:47:07;;;;;;;15.40;10.17;;;;;;;-3.89;80.44;100838.92;1744650;78;27376;-75
2022/12/06 10:50:16;;;;;;;18.40;11.57;;;;;;;-3.77;79.73;100845.28;1707610;81;21663;-77
2022/12/06 10:52:50;;;;;;;18.43;11.20;;;;;;;-3.66;79.13;100836.01;1727358;81;22137;-78
2022/12/06 10:55:29;;;;;;;16.00;9.77;;;;;;;-3.51;79.37;100833.87;1695199;84;21651;-75
2022/12/06 10:58:10;;;;;;;16.07;10.63;;;;;;;-3.33;79.00;100824.87;1688564;83;20951;-69
2022/12/06 11:01:02;;;;;;;24.13;11.27;;;;;;;-3.15;78.49;100820.63;1683384;85;20889;-81
2022/12/06 11:03:35;;;;;;;12.87;8.67;;;;;;;-3.07;77.12;100813.72;1664197;83;20975;-80
2022/12/06 11:06:33;;;;;;;13.72;9.93;;;;;;;-3.01;76.70;100814.98;1727874;81;21233;-82
2022/12/06 11:09:34;;;;;;;29.53;13.87;;;;;;;-2.89;76.24;100810.45;1721388;81;20923;-74
2022/12/06 11:12:02;;;;;;;16.43;11.63;;;;;;;-2.77;76.27;100802.28;1701616;84;20963;-75
2022/12/06 11:14:40;;;;;;;17.67;10.87;;;;;;;-2.73;74.69;100798.89;1724142;81;21036;-75
2022/12/06 11:17:23;;;;;;;16.23;11.40;;;;;;;-2.80;74.76;100793.36;1721728;83;21100;-77
2022/12/06 11:19:58;;;;;;;17.63;11.73;;;;;;;-2.78;74.69;100795.35;1723306;82;21083;-78
2022/12/06 11:23:04;;;;;;;14.77;11.50;;;;;;;-2.68;75.25;100789.61;1726258;81;21492;-74
2022/12/06 11:25:48;;;;;;;18.40;10.30;;;;;;;-2.58;73.90;100784.83;1715747;81;21039;-69
2022/12/06 11:28:44;;;;;;;15.67;9.40;;;;;;;-2.54;73.96;100779.66;1695779;83;21028;-71
2022/12/06 11:31:25;;;;;;;13.27;10.00;;;;;;;-2.52;73.58;100778.53;1632998;86;21099;-70
2022/12/06 11:33:51;;;;;;;17.80;11.00;;;;;;;-2.40;74.17;100768.19;1642034;84;21202;-72
2022/12/06 11:36:19;;;;;;;27.80;11.57;;;;;;;-2.26;73.67;100757.73;1643447;85;21011;-72
2022/12/06 11:38:46;;;;;;;17.73;12.13;;;;;;;-2.13;73.15;100750.34;1657518;84;21094;-70
2022/12/06 11:41:18;;;;;;;25.07;13.13;;;;;;;-2.14;72.47;100759.70;1662937;84;21086;-70
2022/12/06 11:43:45;;;;;;;18.70;13.20;;;;;;;-2.12;72.32;100753.81;1661382;84;21019;-70
2022/12/06 11:46:12;;;;;;;22.87;14.10;;;;;;;-2.13;72.37;100751.66;1645063;85;21167;-71
2022/12/06 11:48:39;;;;;;;19.20;12.20;;;;;;;-2.15;72.19;100752.28;1647491;86;21063;-72
2022/12/06 11:51:13;;;;;;;22.60;12.77;;;;;;;-2.15;72.41;100748.80;1631500;86;21158;-70
2022/12/06 11:53:52;;;;;;;24.47;12.10;;;;;;;-2.09;72.47;100743.81;1680627;84;21073;-74
2022/12/06 11:56:31;;;;;;;15.20;12.17;;;;;;;-2.07;72.10;100747.62;1688108;84;21141;-72
2022/12/06 11:59:25;;;;;;;15.87;9.37;;;;;;;-2.05;71.94;100743.86;1665316;85;21234;-73
2022/12/06 12:01:57;;;;;;;21.25;11.28;;;;;;;-2.09;71.63;100739.02;1651818;85;21605;-69
2022/12/06 12:04:40;;;;;;;15.70;10.40;;;;;;;-2.08;72.04;100732.78;1656113;85;21041;-76
2022/12/06 12:07:18;;;;;;;15.87;11.53;;;;;;;-1.95;72.29;100728.85;1616400;86;21068;-70
2022/12/06 12:09:57;;;;;;;24.13;11.37;;;;;;;-1.79;71.65;100721.17;1619766;87;21098;-71
2022/12/06 12:15:26;;;;;;;18.27;11.93;;;;;;;-1.83;70.86;100713.22;1619794;88;20995;-70
2022/12/06 12:17:55;;;;;;;19.57;12.20;;;;;;;-1.89;70.69;100708.52;1622527;87;21559;-74
2022/12/06 12:20:33;;;;;;;16.77;12.10;;;;;;;-1.97;71.15;100704.46;1620146;87;21083;-69
2022/12/06 12:23:03;;;;;;;21.37;13.63;;;;;;;-1.95;71.27;100706.93;1659698;85;21271;-69
2022/12/06 12:25:33;;;;;;;16.50;11.97;;;;;;;-2.01;71.30;100700.42;1624690;87;21186;-71
2022/12/06 12:28:00;;;;;;;21.60;11.70;;;;;;;-2.07;71.44;100699.70;1655986;85;21002;-71
2022/12/06 12:30:37;;;;;;;17.43;11.90;;;;;;;-2.09;71.69;100692.91;1646924;87;20979;-72
2022/12/06 12:33:11;;;;;;;19.80;13.43;;;;;;;-2.04;71.70;100698.58;1671875;84;21046;-72
2022/12/06 12:35:55;;;;;;;22.13;13.57;;;;;;;-2.06;71.65;100695.27;1672933;84;21003;-70
2022/12/06 12:38:45;;;;;;;26.37;14.00;;;;;;;-2.05;71.77;100697.73;1677073;84;21097;-72
2022/12/06 12:41:31;;;;;;;25.73;13.07;;;;;;;-2.03;71.65;100691.84;1673971;84;21130;-73
2022/12/06 12:44:08;;;;;;;20.80;12.80;;;;;;;-1.98;71.69;100690.93;1646165;87;21122;-75
2022/12/06 12:46:35;;;;;;;19.70;11.83;;;;;;;-1.93;71.50;100696.60;1642820;85;21089;-72
2022/12/06 12:49:33;;;;;;;20.33;11.40;;;;;;;-1.88;71.03;100690.89;1700212;83;21622;-69
2022/12/06 12:52:01;;;;;;;23.83;11.10;;;;;;;-1.87;71.06;100691.24;1679741;83;21139;-75
2022/12/06 12:54:35;;;;;;;23.83;12.47;;;;;;;-1.89;71.14;100691.86;1705401;82;20971;-72
2022/12/06 12:57:08;;;;;;;16.67;10.47;;;;;;;-1.83;71.16;100696.56;1706656;82;22198;-74
2022/12/06 12:59:39;;;;;;;20.13;13.57;;;;;;;-1.79;70.72;100697.44;1707988;82;21003;-74
2022/12/06 13:02:25;;;;;;;18.50;11.07;;;;;;;-1.85;70.70;100693.23;1693447;82;21013;-73
2022/12/06 13:05:13;;;;;;;19.47;12.37;;;;;;;-1.91;70.82;100691.16;1689178;84;21875;-72
2022/12/06 13:07:41;;;;;;;14.87;9.30;;;;;;;-2.02;70.81;100695.32;1680513;83;22401;-75
2022/12/06 13:10:25;;;;;;;13.60;11.00;;;;;;;-2.19;71.21;100692.94;1704635;83;21090;-75
2022/12/06 13:13:22;;;;;;;21.03;14.23;;;;;;;-2.29;71.61;100686.86;1678408;84;21689;-75
2022/12/06 13:15:50;;;;;;;14.57;9.83;;;;;;;-2.35;71.85;100692.72;1646249;85;21663;-73
2022/12/06 13:18:31;;;;;;;15.53;9.83;;;;;;;-2.39;72.20;100688.68;1704316;82;21124;-75
2022/12/06 13:21:04;;;;;;;16.30;10.70;;;;;;;-2.44;72.22;100682.52;1704617;83;21065;-75
2022/12/06 13:23:34;;;;;;;13.77;9.93;;;;;;;-2.51;72.41;100685.39;1692077;82;21038;-73
2022/12/06 13:26:21;;;;;;;14.40;10.03;;;;;;;-2.65;72.82;100680.57;1709788;82;21050;-73
2022/12/06 13:28:58;;;;;;;12.27;9.23;;;;;;;-2.73;73.24;100687.00;1707098;83;21074;-72
2022/12/06 13:31:30;;;;;;;17.00;10.23;;;;;;;-2.84;73.64;100684.05;1703361;83;21327;-70
2022/12/06 13:34:04;;;;;;;15.47;11.10;;;;;;;-2.93;73.95;100683.58;1704022;82;21026;-72
2022/12/06 13:36:32;;;;;;;17.03;10.20;;;;;;;-3.01;74.47;100682.09;1675160;84;21586;-72
2022/12/06 13:39:33;;;;;;;14.57;9.43;;;;;;;-3.04;74.68;100681.08;1678877;84;21147;-71
2022/12/06 13:42:17;;;;;;;15.00;10.93;;;;;;;-3.09;74.96;100692.02;1668116;85;21054;-72
2022/12/06 13:44:53;;;;;;;16.03;11.20;;;;;;;-3.11;75.28;100686.05;1676027;84;22020;-73
2022/12/06 13:47:36;;;;;;;13.97;9.37;;;;;;;-3.14;75.59;100680.23;1654167;85;20991;-71
2022/12/06 13:50:22;;;;;;;;;;;;;;;-3.21;75.84;100676.47;1671750;84;20975;-74
2022/12/06 13:52:54;;;;;;;15.50;9.03;;;;;;;-3.29;76.32;100671.08;1669841;85;20183;-73
2022/12/06 13:55:29;;;;;;;14.43;9.20;;;;;;;-3.43;76.82;100671.00;1673525;84;21087;-73
2022/12/06 13:58:02;;;;;;;13.37;10.23;;;;;;;-3.42;77.07;100669.20;1674861;84;21163;-68
2022/12/06 14:00:34;;;;;;;15.98;11.00;;;;;;;-3.46;77.31;100670.44;1676061;84;20954;-66
2022/12/06 14:03:22;;;;;;;12.95;8.98;;;;;;;-3.50;77.35;100665.91;1663712;84;21549;-67
2022/12/06 14:06:11;;;;;;;18.50;10.27;;;;;;;-3.57;77.68;100668.76;1655856;84;21074;-66
2022/12/06 14:08:48;;;;;;;15.50;11.47;;;;;;;-3.64;78.00;100671.56;1673586;84;21159;-68
2022/12/06 14:11:30;;;;;;;14.53;9.83;;;;;;;-3.75;78.37;100676.47;1675614;84;21102;-69
2022/12/06 14:14:02;;;;;;;23.60;16.02;;;;;;;-3.82;78.63;100680.58;1660246;85;22206;-67
2022/12/06 14:16:45;;;;;;;19.20;11.40;;;;;;;-3.87;79.21;100681.94;1675053;84;20981;-72
2022/12/06 14:19:22;;;;;;;15.65;11.43;;;;;;;-3.96;79.66;100682.26;1663548;84;24990;-67
2022/12/06 14:22:01;;;;;;;25.27;13.97;;;;;;;-4.03;79.89;100678.00;1685257;84;21208;-68
2022/12/06 14:24:40;;;;;;;23.17;13.57;;;;;;;-4.00;79.98;100670.36;1668234;84;21259;-70
2022/12/06 18:21:29;;;;;;;18.70;12.97;;;;;;;-5.66;93.13;100510.95;1696666;82;28381;-79
2022/12/06 18:23:56;;;;;;;35.77;21.77;;;;;;;-5.61;93.09;100505.66;1729835;82;31563;-77
2022/12/06 18:26:24;;;;;;;30.43;18.47;;;;;;;-5.56;93.03;100503.48;1721995;82;21008;-81
2022/12/06 18:28:58;;;;;;;31.53;19.67;;;;;;;-5.48;92.93;100501.56;1715995;82;21019;-85
2022/12/06 18:31:27;;;;;;;29.90;18.73;;;;;;;-5.40;92.60;100500.44;1727917;81;21040;-80
2022/12/06 18:33:57;;;;;;;32.10;17.03;;;;;;;-5.33;92.29;100492.42;1731578;82;21544;-86
2022/12/06 18:36:24;;;;;;;36.17;20.10;;;;;;;-5.27;91.92;100496.33;1729224;82;21248;-80
2022/12/06 18:38:58;;;;;;;29.73;18.63;;;;;;;-5.24;91.59;100494.27;1702753;83;20948;-78
2022/12/06 18:41:25;;;;;;;29.60;17.73;;;;;;;-5.20;91.52;100490.42;1721702;81;21031;-80
2022/12/06 18:43:53;;;;;;;26.87;17.97;;;;;;;-5.11;91.31;100488.33;1730767;82;21023;-79
2022/12/06 18:46:21;;;;;;;28.23;18.97;;;;;;;-5.05;91.11;100486.50;1723955;82;21033;-79
2022/12/06 18:48:51;;;;;;;28.33;15.93;;;;;;;-4.93;91.03;100485.92;1729089;82;21810;-77
2022/12/06 18:51:23;;;;;;;33.27;21.33;;;;;;;-4.81;90.51;100484.89;1727332;82;21008;-81
2022/12/06 18:53:51;;;;;;;26.15;19.62;;;;;;;-4.75;90.25;100474.34;1715550;82;20992;-83
2022/12/06 18:56:20;;;;;;;32.83;19.50;;;;;;;-4.62;90.17;100469.69;1694899;83;21034;-81
2022/12/06 18:58:46;;;;;;;31.63;20.33;;;;;;;-4.52;89.52;100467.92;1695374;83;21018;-78
2022/12/06 19:01:25;;;;;;;38.53;22.57;;;;;;;-4.42;88.71;100462.22;1710448;83;21246;-82
2022/12/06 19:03:52;;;;;;;29.23;19.57;;;;;;;-4.31;88.40;100458.63;1713503;82;21004;-79
2022/12/06 19:06:24;;;;;;;25.27;18.13;;;;;;;-4.23;87.58;100456.17;1711493;83;21055;-78
2022/12/06 19:08:54;;;;;;;29.70;17.03;;;;;;;-4.21;86.27;100460.78;1698270;83;21064;-73
2022/12/06 19:11:20;;;;;;;26.83;17.13;;;;;;;-4.19;85.80;100455.76;1696013;82;21011;-77
2022/12/06 19:13:52;;;;;;;26.97;16.60;;;;;;;-4.20;84.36;100455.89;1724098;82;21162;-78
2022/12/06 19:16:21;;;;;;;19.27;13.47;;;;;;;-4.31;83.66;100456.00;1719011;82;21647;-77
2022/12/06 19:18:49;;;;;;;22.90;13.47;;;;;;;-4.35;83.46;100445.42;1710439;83;21038;-77
2022/12/06 19:21:16;;;;;;;24.93;14.07;;;;;;;-4.31;83.60;100443.70;1699119;83;21550;-76
2022/12/06 19:23:50;;;;;;;28.13;19.17;;;;;;;-4.26;83.27;100438.04;1703875;83;21676;-78
2022/12/06 19:26:17;;;;;;;35.17;18.57;;;;;;;-4.21;83.16;100430.58;1705052;81;21221;-77
2022/12/06 19:28:45;;;;;;;27.10;14.53;;;;;;;-4.12;83.25;100429.75;1703403;82;21053;-73
2022/12/06 19:31:12;;;;;;;29.37;16.20;;;;;;;-3.98;82.99;100429.38;1728677;83;20943;-72
2022/12/06 19:33:42;;;;;;;25.60;15.33;;;;;;;-3.96;82.37;100430.05;1729968;82;21019;-71
2022/12/06 19:36:13;;;;;;;39.30;19.80;;;;;;;-4.01;82.01;100414.70;1722418;82;21607;-81
2022/12/06 19:38:40;;;;;;;24.47;15.70;;;;;;;-3.93;82.22;100418.45;1728126;82;21140;-84
2022/12/06 19:41:14;;;;;;;30.87;13.33;;;;;;;-3.90;81.44;100416.84;1703607;83;20979;-80
2022/12/06 19:46:29;;;;;;;26.90;14.70;;;;;;;-4.07;81.27;100416.56;1707699;83;21077;-77
2022/12/06 19:49:04;;;;;;;28.23;15.60;;;;;;;-4.05;81.50;100404.13;1729427;81;21007;-82
2022/12/06 19:51:31;;;;;;;41.47;17.93;;;;;;;-4.01;81.68;100411.24;1699280;84;21635;-73
2022/12/06 19:53:59;;;;;;;34.00;18.47;;;;;;;-4.01;81.37;100405.51;1694044;83;21503;-81
2022/12/06 19:56:29;;;;;;;35.27;21.03;;;;;;;-4.04;81.45;100408.91;1695517;84;20978;-79
2022/12/06 19:58:58;;;;;;;29.87;16.97;;;;;;;-4.09;81.41;100404.55;1677280;84;21123;-81
2022/12/06 20:01:32;;;;;;;29.03;16.10;;;;;;;-4.18;81.54;100399.65;1713827;82;21094;-87
2022/12/06 20:03:58;;;;;;;22.60;15.17;;;;;;;-4.22;81.88;100391.67;1705384;82;21301;-85
2022/12/06 20:06:26;;;;;;;25.43;14.33;;;;;;;-4.16;81.94;100390.30;1720257;82;21025;-79
2022/12/06 20:08:59;;;;;;;26.50;14.10;;;;;;;-4.23;81.96;100387.89;1721705;82;20946;-86
2022/12/06 20:14:23;;;;;;;44.97;27.77;;;;;;;-4.21;82.35;100378.06;1683103;83;20984;-87
2022/12/06 20:16:51;;;;;;;30.93;19.13;;;;;;;-4.05;82.70;100383.12;1696798;83;21321;-86
2022/12/06 20:19:21;;;;;;;20.97;13.27;;;;;;;-3.95;81.94;100381.80;1696041;83;21658;-82
2022/12/06 20:21:48;;;;;;;28.40;13.40;;;;;;;-4.00;81.77;100374.81;1708642;82;21073;-81
2022/12/06 20:24:17;;;;;;;19.87;14.33;;;;;;;-4.02;81.96;100368.86;1717774;83;21101;-80
2022/12/06 20:26:44;;;;;;;19.60;12.30;;;;;;;-3.93;82.02;100365.91;1709453;82;21798;-77
2022/12/06 20:29:11;;;;;;;18.20;13.53;;;;;;;-3.93;81.45;100368.02;1713511;82;22178;-75
2022/12/06 20:31:38;;;;;;;25.03;14.87;;;;;;;-4.04;81.35;100371.65;1717407;83;21007;-79
2022/12/06 20:34:05;;;;;;;21.23;13.20;;;;;;;-4.07;81.68;100375.02;1715363;83;20991;-76
2022/12/06 20:36:34;;;;;;;23.43;17.67;;;;;;;-4.00;81.74;100376.13;1715053;83;21016;-76
2022/12/06 20:39:02;;;;;;;34.80;19.67;;;;;;;-3.99;81.63;100377.80;1711490;83;21013;-76
2022/12/06 20:41:30;;;;;;;30.37;17.33;;;;;;;-3.98;81.46;100376.83;1712406;83;21534;-75
2022/12/06 20:44:02;;;;;;;22.40;13.90;;;;;;;-3.96;81.49;100374.88;1715369;82;20974;-78
2022/12/06 20:46:33;;;;;;;27.10;13.43;;;;;;;-4.01;81.23;100374.47;1717082;82;20997;-83
2022/12/06 20:49:04;;;;;;;18.87;11.57;;;;;;;-4.10;81.19;100372.20;1716009;82;21031;-74
2022/12/06 20:51:32;;;;;;;21.80;14.40;;;;;;;-4.23;81.20;100366.41;1720091;82;21017;-76
2022/12/06 20:59:24;;;;;;;28.10;15.43;;;;;;;-4.29;81.46;100372.20;1656217;83;21568;-73
2022/12/06 21:01:50;;;;;;;29.37;15.23;;;;;;;-4.31;81.39;100371.50;1682693;84;21109;-74
2022/12/06 21:04:17;;;;;;;21.27;13.17;;;;;;;-4.35;81.43;100373.22;1693975;84;21003;-74
2022/12/06 21:06:44;;;;;;;25.87;14.67;;;;;;;-4.45;81.48;100371.42;1690257;84;21641;-79
2022/12/06 21:09:11;;;;;;;29.73;13.40;;;;;;;-4.53;81.65;100369.98;1668973;84;21089;-73
2022/12/06 21:11:38;;;;;;;23.17;12.83;;;;;;;-4.49;81.83;100358.72;1677672;85;20983;-74
2022/12/06 21:14:05;;;;;;;21.30;13.50;;;;;;;-4.49;81.66;100362.17;1669895;85;21110;-70
2022/12/06 21:16:33;;;;;;;23.23;14.53;;;;;;;-4.47;81.60;100359.42;1669904;86;21063;-78
2022/12/06 21:19:04;;;;;;;22.23;15.10;;;;;;;-4.50;81.38;100351.32;1670132;85;21903;-80
2022/12/06 21:21:34;;;;;;;28.27;15.67;;;;;;;-4.58;81.07;100343.79;1669610;86;21055;-86
2022/12/06 21:24:06;;;;;;;28.67;16.20;;;;;;;-4.61;81.27;100340.14;1670032;86;20986;-85
2022/12/06 21:26:33;;;;;;;19.43;15.40;;;;;;;-4.53;81.24;100342.42;1669723;86;21007;-80
2022/12/06 21:29:00;;;;;;;20.87;13.00;;;;;;;-4.48;80.77;100336.76;1679416;85;20997;-82
2022/12/06 21:31:31;;;;;;;25.13;13.67;;;;;;;-4.46;80.52;100338.77;1681578;84;21240;-80
2022/12/06 21:33:58;;;;;;;25.47;15.77;;;;;;;-4.44;80.32;100333.72;1655690;86;20994;-86
2022/12/06 21:36:25;;;;;;;20.23;12.63;;;;;;;-4.37;80.11;100325.30;1669898;85;21026;-77
2022/12/06 21:38:52;;;;;;;26.27;14.07;;;;;;;-4.33;79.65;100324.05;1632438;82;32698;-79
2022/12/06 21:41:19;;;;;;;21.67;13.90;;;;;;;-4.43;78.46;100319.63;1649484;83;27489;-75
2022/12/06 21:43:45;;;;;;;21.47;13.73;;;;;;;-4.48;78.69;100315.76;1659612;85;21225;-77
2022/12/06 21:46:17;;;;;;;16.97;10.80;;;;;;;-4.45;78.67;100307.11;1660522;86;20997;-74
2022/12/06 21:48:46;;;;;;;19.20;12.03;;;;;;;-4.41;78.06;100308.97;1660233;85;21024;-73
2022/12/06 21:51:14;;;;;;;19.43;12.67;;;;;;;-4.46;77.57;100308.08;1642232;85;20996;-74
2022/12/06 21:53:41;;;;;;;21.27;12.50;;;;;;;-4.50;77.37;100304.55;1632290;86;21115;-83
2022/12/06 21:56:11;;;;;;;16.73;12.77;;;;;;;-4.55;77.20;100296.27;1632476;87;21146;-79
2022/12/06 21:58:38;;;;;;;27.10;13.17;;;;;;;-4.53;77.28;100299.11;1658877;85;21595;-80
2022/12/06 22:01:12;;;;;;;19.80;12.00;;;;;;;-4.52;76.93;100296.02;1666692;85;21349;-81
2022/12/06 22:03:40;;;;;;;15.87;10.07;;;;;;;-4.48;76.79;100286.88;1642447;86;21516;-79
2022/12/06 22:06:11;;;;;;;19.13;11.70;;;;;;;-4.45;76.35;100283.97;1659537;86;21024;-79
2022/12/06 22:08:39;;;;;;;23.27;12.60;;;;;;;-4.49;76.05;100278.18;1659118;86;21196;-80
2022/12/06 22:11:09;;;;;;;14.47;9.77;;;;;;;-4.52;75.65;100273.70;1658514;85;21574;-78
2022/12/06 22:13:38;;;;;;;20.33;11.83;;;;;;;-4.55;74.91;100270.02;1659733;85;21028;-84
